sensor_id;sensor_type;location;lat;lon;timestamp;pressure;altitude;pressure_sealevel;temperature;humidity
35989;BME280;22064;42.672;23.282;2023-05-19T00:01:30;94874.56;;;10.66;100.00
35989;BME280;22064;42.672;23.282;2023-05-19T00:03:57;94881.75;;;10.75;100.00
35989;BME280;22064;42.672;23.282;2023-05-19T00:06:28;94887.75;;;10.76;100.00
35989;BME280;22064;42.672;23.282;2023-05-19T00:09:02;94876.84;;;10.79;100.00
35989;BME280;22064;42.672;23.282;2023-05-19T00:11:29;94881.41;;;10.89;100.00
35989;BME280;22064;42.672;23.282;2023-05-19T00:13:58;94879.59;;;10.89;100.00
35989;BME280;22064;42.672;23.282;2023-05-19T00:16:25;94877.72;;;10.84;100.00
35989;BME280;22064;42.672;23.282;2023-05-19T00:18:51;94876.84;;;10.79;100.00
35989;BME280;22064;42.672;23.282;2023-05-19T00:21:18;94878.09;;;10.76;100.00
35989;BME280;22064;42.672;23.282;2023-05-19T00:23:44;94871.69;;;10.84;100.00
35989;BME280;22064;42.672;23.282;2023-05-19T00:26:10;94874.06;;;10.85;100.00
35989;BME280;22064;42.672;23.282;2023-05-19T00:28:37;94864.13;;;10.82;100.00
35989;BME280;22064;42.672;23.282;2023-05-19T00:31:04;94859.97;;;10.81;100.00
35989;BME280;22064;42.672;23.282;2023-05-19T00:33:30;94859.72;;;10.83;100.00
35989;BME280;22064;42.672;23.282;2023-05-19T00:35:59;94859.97;;;10.81;100.00
35989;BME280;22064;42.672;23.282;2023-05-19T00:38:29;94865.78;;;10.89;100.00
35989;BME280;22064;42.672;23.282;2023-05-19T00:40:55;94864.53;;;10.91;100.00
35989;BME280;22064;42.672;23.282;2023-05-19T00:43:21;94867.53;;;10.83;100.00
35989;BME280;22064;42.672;23.282;2023-05-19T00:45:47;94854.56;;;10.71;100.00
35989;BME280;22064;42.672;23.282;2023-05-19T00:48:13;94862.25;;;10.78;100.00
35989;BME280;22064;42.672;23.282;2023-05-19T00:50:39;94852.06;;;10.76;100.00
35989;BME280;22064;42.672;23.282;2023-05-19T00:53:06;94862.47;;;10.76;100.00
35989;BME280;22064;42.672;23.282;2023-05-19T00:55:34;94858.28;;;10.58;100.00
35989;BME280;22064;42.672;23.282;2023-05-19T00:58:02;94863.78;;;10.45;100.00
35989;BME280;22064;42.672;23.282;2023-05-19T01:00:29;94855.09;;;10.39;100.00
35989;BME280;22064;42.672;23.282;2023-05-19T01:02:55;94848.91;;;10.40;100.00
35989;BME280;22064;42.672;23.282;2023-05-19T01:05:21;94863.47;;;10.42;100.00
35989;BME280;22064;42.672;23.282;2023-05-19T01:07:47;94854.56;;;10.37;100.00
35989;BME280;22064;42.672;23.282;2023-05-19T01:10:18;94859.16;;;10.47;100.00
35989;BME280;22064;42.672;23.282;2023-05-19T01:12:45;94863.84;;;10.33;100.00
35989;BME280;22064;42.672;23.282;2023-05-19T01:15:12;94860.03;;;10.24;100.00
35989;BME280;22064;42.672;23.282;2023-05-19T01:18:09;94864.09;;;10.32;100.00
35989;BME280;22064;42.672;23.282;2023-05-19T01:20:50;94864.88;;;10.32;100.00
35989;BME280;22064;42.672;23.282;2023-05-19T01:23:57;94871.13;;;10.31;100.00
35989;BME280;22064;42.672;23.282;2023-05-19T01:32:15;94853.53;;;10.10;100.00
35989;BME280;22064;42.672;23.282;2023-05-19T01:34:45;94865.50;;;10.11;100.00
35989;BME280;22064;42.672;23.282;2023-05-19T01:37:15;94863.47;;;10.13;100.00
35989;BME280;22064;42.672;23.282;2023-05-19T01:39:43;94857.06;;;10.04;100.00
35989;BME280;22064;42.672;23.282;2023-05-19T01:42:10;94854.94;;;10.01;100.00
35989;BME280;22064;42.672;23.282;2023-05-19T01:44:37;94858.69;;;9.93;100.00
35989;BME280;22064;42.672;23.282;2023-05-19T01:47:03;94864.03;;;9.86;100.00
35989;BME280;22064;42.672;23.282;2023-05-19T01:49:29;94868.47;;;9.74;100.00
35989;BME280;22064;42.672;23.282;2023-05-19T01:51:55;94867.56;;;9.68;100.00
35989;BME280;22064;42.672;23.282;2023-05-19T01:54:22;94880.25;;;9.65;100.00
35989;BME280;22064;42.672;23.282;2023-05-19T01:57:06;94877.00;;;9.58;100.00
35989;BME280;22064;42.672;23.282;2023-05-19T02:05:06;94874.28;;;9.53;100.00
35989;BME280;22064;42.672;23.282;2023-05-19T02:07:40;94872.69;;;9.52;100.00
35989;BME280;22064;42.672;23.282;2023-05-19T02:12:36;94872.00;;;9.56;100.00
35989;BME280;22064;42.672;23.282;2023-05-19T02:15:27;94874.16;;;9.59;100.00
35989;BME280;22064;42.672;23.282;2023-05-19T02:17:54;94882.38;;;9.68;100.00
35989;BME280;22064;42.672;23.282;2023-05-19T02:20:20;94878.78;;;9.69;100.00
35989;BME280;22064;42.672;23.282;2023-05-19T02:22:49;94878.44;;;9.65;100.00
35989;BME280;22064;42.672;23.282;2023-05-19T02:25:15;94893.56;;;9.68;100.00
35989;BME280;22064;42.672;23.282;2023-05-19T02:27:41;94878.09;;;9.62;100.00
35989;BME280;22064;42.672;23.282;2023-05-19T02:30:07;94873.81;;;9.56;100.00
35989;BME280;22064;42.672;23.282;2023-05-19T02:32:35;94869.97;;;9.58;100.00
35989;BME280;22064;42.672;23.282;2023-05-19T02:35:02;94871.31;;;9.61;100.00
35989;BME280;22064;42.672;23.282;2023-05-19T02:37:28;94873.34;;;9.59;100.00
35989;BME280;22064;42.672;23.282;2023-05-19T02:39:54;94877.56;;;9.60;100.00
35989;BME280;22064;42.672;23.282;2023-05-19T02:42:20;94874.16;;;9.59;100.00
35989;BME280;22064;42.672;23.282;2023-05-19T02:44:47;94892.91;;;9.73;100.00
35989;BME280;22064;42.672;23.282;2023-05-19T02:47:13;94858.09;;;9.62;100.00
35989;BME280;22064;42.672;23.282;2023-05-19T02:49:39;94894.56;;;9.79;100.00
35989;BME280;22064;42.672;23.282;2023-05-19T02:52:05;94893.22;;;9.77;100.00
35989;BME280;22064;42.672;23.282;2023-05-19T02:54:32;94895.50;;;9.73;100.00
35989;BME280;22064;42.672;23.282;2023-05-19T02:56:59;94886.00;;;9.67;100.00
35989;BME280;22064;42.672;23.282;2023-05-19T02:59:26;94889.63;;;9.66;100.00
35989;BME280;22064;42.672;23.282;2023-05-19T03:01:57;94893.13;;;9.71;100.00
35989;BME280;22064;42.672;23.282;2023-05-19T03:04:23;94899.53;;;9.81;100.00
35989;BME280;22064;42.672;23.282;2023-05-19T03:06:49;94888.38;;;9.68;100.00
35989;BME280;22064;42.672;23.282;2023-05-19T03:09:15;94893.13;;;9.71;100.00
35989;BME280;22064;42.672;23.282;2023-05-19T03:11:41;94886.00;;;9.67;100.00
35989;BME280;22064;42.672;23.282;2023-05-19T03:14:07;94899.22;;;9.77;100.00
35989;BME280;22064;42.672;23.282;2023-05-19T03:16:39;94893.13;;;9.71;100.00
35989;BME280;22064;42.672;23.282;2023-05-19T03:19:08;94899.66;;;9.74;100.00
35989;BME280;22064;42.672;23.282;2023-05-19T03:21:34;94903.88;;;9.75;100.00
35989;BME280;22064;42.672;23.282;2023-05-19T03:24:00;94900.59;;;9.68;100.00
35989;BME280;22064;42.672;23.282;2023-05-19T03:26:26;94896.25;;;9.85;100.00
35989;BME280;22064;42.672;23.282;2023-05-19T03:28:55;94890.50;;;9.83;100.00
35989;BME280;22064;42.672;23.282;2023-05-19T03:31:21;94888.97;;;9.99;100.00
35989;BME280;22064;42.672;23.282;2023-05-19T03:33:47;94884.50;;;9.83;100.00
35989;BME280;22064;42.672;23.282;2023-05-19T03:36:12;94893.25;;;10.05;100.00
35989;BME280;22064;42.672;23.282;2023-05-19T03:38:38;94896.63;;;10.06;100.00
35989;BME280;22064;42.672;23.282;2023-05-19T03:41:04;94895.66;;;10.24;100.00
35989;BME280;22064;42.672;23.282;2023-05-19T03:43:30;94870.06;;;10.04;100.00
35989;BME280;22064;42.672;23.282;2023-05-19T03:46:00;94898.97;;;10.19;100.00
35989;BME280;22064;42.672;23.282;2023-05-19T03:48:45;94892.63;;;10.15;100.00
35989;BME280;22064;42.672;23.282;2023-05-19T03:51:26;94892.44;;;10.16;100.00
35989;BME280;22064;42.672;23.282;2023-05-19T03:54:01;94888.47;;;10.14;100.00
35989;BME280;22064;42.672;23.282;2023-05-19T03:56:27;94889.03;;;10.16;100.00
35989;BME280;22064;42.672;23.282;2023-05-19T03:58:53;94897.06;;;10.26;100.00
35989;BME280;22064;42.672;23.282;2023-05-19T04:01:22;94890.47;;;10.52;100.00
35989;BME280;22064;42.672;23.282;2023-05-19T04:03:48;94891.88;;;10.43;100.00
35989;BME280;22064;42.672;23.282;2023-05-19T04:06:14;94905.81;;;10.66;100.00
35989;BME280;22064;42.672;23.282;2023-05-19T04:08:40;94895.31;;;10.77;100.00
35989;BME280;22064;42.672;23.282;2023-05-19T04:11:06;94894.44;;;10.89;100.00
35989;BME280;22064;42.672;23.282;2023-05-19T04:13:32;94903.06;;;11.06;100.00
35989;BME280;22064;42.672;23.282;2023-05-19T04:15:59;94911.03;;;11.16;100.00
35989;BME280;22064;42.672;23.282;2023-05-19T04:18:25;94901.47;;;11.22;100.00
35989;BME280;22064;42.672;23.282;2023-05-19T04:20:51;94898.84;;;11.22;100.00
35989;BME280;22064;42.672;23.282;2023-05-19T04:23:18;94901.28;;;11.12;100.00
35989;BME280;22064;42.672;23.282;2023-05-19T04:25:44;94902.66;;;11.14;100.00
35989;BME280;22064;42.672;23.282;2023-05-19T04:28:10;94912.34;;;11.02;100.00
35989;BME280;22064;42.672;23.282;2023-05-19T04:30:36;94905.88;;;11.04;100.00
35989;BME280;22064;42.672;23.282;2023-05-19T04:33:03;94913.69;;;11.21;100.00
35989;BME280;22064;42.672;23.282;2023-05-19T04:35:29;94925.63;;;11.34;100.00
35989;BME280;22064;42.672;23.282;2023-05-19T04:37:57;94917.00;;;11.33;100.00
35989;BME280;22064;42.672;23.282;2023-05-19T04:40:27;94920.25;;;11.41;100.00
35989;BME280;22064;42.672;23.282;2023-05-19T04:42:58;94923.19;;;11.49;100.00
35989;BME280;22064;42.672;23.282;2023-05-19T04:45:27;94917.84;;;11.56;100.00
35989;BME280;22064;42.672;23.282;2023-05-19T04:47:56;94931.69;;;11.78;100.00
35989;BME280;22064;42.672;23.282;2023-05-19T04:50:23;94925.66;;;11.95;100.00
35989;BME280;22064;42.672;23.282;2023-05-19T04:52:49;94940.72;;;11.88;100.00
35989;BME280;22064;42.672;23.282;2023-05-19T04:55:15;94927.38;;;11.67;100.00
35989;BME280;22064;42.672;23.282;2023-05-19T04:57:42;94933.50;;;11.56;100.00
35989;BME280;22064;42.672;23.282;2023-05-19T05:00:08;94921.75;;;11.59;100.00
35989;BME280;22064;42.672;23.282;2023-05-19T05:02:47;94931.66;;;11.56;100.00
35989;BME280;22064;42.672;23.282;2023-05-19T05:05:18;94932.06;;;11.65;100.00
35989;BME280;22064;42.672;23.282;2023-05-19T05:07:44;94922.69;;;11.69;100.00
35989;BME280;22064;42.672;23.282;2023-05-19T05:10:10;94940.88;;;11.64;100.00
35989;BME280;22064;42.672;23.282;2023-05-19T05:12:36;94928.81;;;11.80;100.00
35989;BME280;22064;42.672;23.282;2023-05-19T05:15:04;94926.97;;;11.75;100.00
35989;BME280;22064;42.672;23.282;2023-05-19T05:17:33;94937.13;;;11.94;100.00
35989;BME280;22064;42.672;23.282;2023-05-19T05:20:01;94936.03;;;11.90;100.00
35989;BME280;22064;42.672;23.282;2023-05-19T05:22:30;94938.16;;;11.93;100.00
35989;BME280;22064;42.672;23.282;2023-05-19T05:24:56;94940.13;;;12.02;100.00
35989;BME280;22064;42.672;23.282;2023-05-19T05:27:23;94930.94;;;12.22;100.00
35989;BME280;22064;42.672;23.282;2023-05-19T05:29:49;94925.72;;;12.22;100.00
35989;BME280;22064;42.672;23.282;2023-05-19T05:32:15;94925.69;;;12.44;100.00
35989;BME280;22064;42.672;23.282;2023-05-19T05:34:42;94924.78;;;12.33;100.00
35989;BME280;22064;42.672;23.282;2023-05-19T05:37:08;94927.09;;;12.57;100.00
35989;BME280;22064;42.672;23.282;2023-05-19T05:39:35;94936.41;;;12.47;100.00
35989;BME280;22064;42.672;23.282;2023-05-19T05:42:01;94933.78;;;12.20;100.00
35989;BME280;22064;42.672;23.282;2023-05-19T05:44:27;94936.97;;;12.50;100.00
35989;BME280;22064;42.672;23.282;2023-05-19T05:46:55;94939.81;;;12.48;100.00
35989;BME280;22064;42.672;23.282;2023-05-19T05:49:21;94939.97;;;12.63;100.00
35989;BME280;22064;42.672;23.282;2023-05-19T05:51:47;94934.66;;;12.53;100.00
35989;BME280;22064;42.672;23.282;2023-05-19T05:54:14;94940.09;;;12.52;100.00
35989;BME280;22064;42.672;23.282;2023-05-19T05:56:44;94930.94;;;12.76;100.00
35989;BME280;22064;42.672;23.282;2023-05-19T05:59:10;94945.13;;;12.58;100.00
35989;BME280;22064;42.672;23.282;2023-05-19T06:01:36;94940.59;;;12.48;100.00
35989;BME280;22064;42.672;23.282;2023-05-19T06:04:05;94946.66;;;12.54;100.00
35989;BME280;22064;42.672;23.282;2023-05-19T06:06:31;94956.38;;;12.86;100.00
35989;BME280;22064;42.672;23.282;2023-05-19T06:08:59;94967.34;;;13.15;100.00
35989;BME280;22064;42.672;23.282;2023-05-19T06:11:26;94950.69;;;12.94;100.00
35989;BME280;22064;42.672;23.282;2023-05-19T06:13:55;94958.94;;;13.40;100.00
35989;BME280;22064;42.672;23.282;2023-05-19T06:16:39;94967.38;;;13.20;100.00
35989;BME280;22064;42.672;23.282;2023-05-19T06:19:05;94954.59;;;13.24;100.00
35989;BME280;22064;42.672;23.282;2023-05-19T06:21:31;94959.41;;;13.05;100.00
35989;BME280;22064;42.672;23.282;2023-05-19T06:23:57;94951.00;;;13.30;100.00
35989;BME280;22064;42.672;23.282;2023-05-19T06:26:25;94957.22;;;13.61;100.00
35989;BME280;22064;42.672;23.282;2023-05-19T06:28:51;94961.78;;;13.76;100.00
35989;BME280;22064;42.672;23.282;2023-05-19T06:31:17;94948.22;;;13.89;100.00
35989;BME280;22064;42.672;23.282;2023-05-19T06:33:51;94956.78;;;14.27;100.00
35989;BME280;22064;42.672;23.282;2023-05-19T06:36:17;94952.78;;;14.14;100.00
35989;BME280;22064;42.672;23.282;2023-05-19T06:38:44;94950.63;;;14.59;100.00
35989;BME280;22064;42.672;23.282;2023-05-19T06:41:11;94965.31;;;14.85;100.00
35989;BME280;22064;42.672;23.282;2023-05-19T06:43:36;94963.47;;;14.70;100.00
35989;BME280;22064;42.672;23.282;2023-05-19T06:46:03;94959.84;;;15.02;100.00
35989;BME280;22064;42.672;23.282;2023-05-19T06:48:30;94951.72;;;15.19;100.00
35989;BME280;22064;42.672;23.282;2023-05-19T06:50:57;94958.53;;;15.30;100.00
35989;BME280;22064;42.672;23.282;2023-05-19T06:53:24;94964.03;;;15.03;100.00
35989;BME280;22064;42.672;23.282;2023-05-19T06:55:51;94967.72;;;14.97;100.00
35989;BME280;22064;42.672;23.282;2023-05-19T06:58:20;94970.34;;;15.17;100.00
35989;BME280;22064;42.672;23.282;2023-05-19T07:00:46;94970.63;;;15.36;100.00
35989;BME280;22064;42.672;23.282;2023-05-19T07:03:15;94978.22;;;15.38;100.00
35989;BME280;22064;42.672;23.282;2023-05-19T07:05:41;94974.25;;;15.76;100.00
35989;BME280;22064;42.672;23.282;2023-05-19T07:08:07;94974.47;;;16.05;100.00
35989;BME280;22064;42.672;23.282;2023-05-19T07:10:34;94978.00;;;16.45;100.00
35989;BME280;22064;42.672;23.282;2023-05-19T07:13:04;94973.53;;;16.40;100.00
35989;BME280;22064;42.672;23.282;2023-05-19T07:15:32;94968.09;;;16.27;100.00
35989;BME280;22064;42.672;23.282;2023-05-19T07:17:58;94982.44;;;16.50;100.00
35989;BME280;22064;42.672;23.282;2023-05-19T07:20:24;94984.09;;;16.30;100.00
35989;BME280;22064;42.672;23.282;2023-05-19T07:22:51;94972.22;;;16.38;100.00
35989;BME280;22064;42.672;23.282;2023-05-19T07:25:17;94985.72;;;16.81;100.00
35989;BME280;22064;42.672;23.282;2023-05-19T07:27:45;94996.28;;;16.66;100.00
35989;BME280;22064;42.672;23.282;2023-05-19T07:30:11;94981.94;;;16.43;100.00
35989;BME280;22064;42.672;23.282;2023-05-19T07:32:38;94978.50;;;16.47;100.00
35989;BME280;22064;42.672;23.282;2023-05-19T07:35:04;94982.41;;;16.55;100.00
35989;BME280;22064;42.672;23.282;2023-05-19T07:37:31;94976.63;;;17.07;100.00
35989;BME280;22064;42.672;23.282;2023-05-19T07:39:57;94988.69;;;17.43;100.00
35989;BME280;22064;42.672;23.282;2023-05-19T07:42:23;94971.06;;;17.72;100.00
35989;BME280;22064;42.672;23.282;2023-05-19T07:44:48;94982.78;;;17.56;100.00
35989;BME280;22064;42.672;23.282;2023-05-19T07:47:14;94978.63;;;17.21;100.00
35989;BME280;22064;42.672;23.282;2023-05-19T07:49:40;94979.94;;;16.79;100.00
35989;BME280;22064;42.672;23.282;2023-05-19T07:52:06;94976.28;;;17.14;100.00
35989;BME280;22064;42.672;23.282;2023-05-19T07:54:32;94986.31;;;17.46;100.00
35989;BME280;22064;42.672;23.282;2023-05-19T07:56:58;94982.19;;;17.01;100.00
35989;BME280;22064;42.672;23.282;2023-05-19T07:59:24;94975.00;;;16.67;100.00
35989;BME280;22064;42.672;23.282;2023-05-19T08:01:50;94974.28;;;16.51;100.00
35989;BME280;22064;42.672;23.282;2023-05-19T08:04:15;94972.97;;;16.49;100.00
35989;BME280;22064;42.672;23.282;2023-05-19T08:06:41;94974.84;;;16.98;100.00
35989;BME280;22064;42.672;23.282;2023-05-19T08:09:09;94966.00;;;17.52;100.00
35989;BME280;22064;42.672;23.282;2023-05-19T08:11:35;94962.94;;;17.98;100.00
35989;BME280;22064;42.672;23.282;2023-05-19T08:14:01;94965.84;;;18.44;100.00
35989;BME280;22064;42.672;23.282;2023-05-19T08:16:27;94965.94;;;18.77;100.00
35989;BME280;22064;42.672;23.282;2023-05-19T08:18:53;94973.94;;;19.10;100.00
35989;BME280;22064;42.672;23.282;2023-05-19T08:21:20;94973.63;;;19.11;100.00
35989;BME280;22064;42.672;23.282;2023-05-19T08:23:46;94974.22;;;19.08;100.00
35989;BME280;22064;42.672;23.282;2023-05-19T08:26:12;94973.97;;;19.24;100.00
35989;BME280;22064;42.672;23.282;2023-05-19T08:28:38;94964.91;;;19.30;100.00
35989;BME280;22064;42.672;23.282;2023-05-19T08:31:04;94966.97;;;19.66;100.00
35989;BME280;22064;42.672;23.282;2023-05-19T08:33:30;94951.66;;;19.81;100.00
35989;BME280;22064;42.672;23.282;2023-05-19T08:35:56;94962.53;;;20.07;93.06
35989;BME280;22064;42.672;23.282;2023-05-19T08:38:25;94952.16;;;20.25;91.97
35989;BME280;22064;42.672;23.282;2023-05-19T08:40:51;94961.16;;;20.24;92.79
35989;BME280;22064;42.672;23.282;2023-05-19T08:43:17;94959.00;;;20.26;87.35
35989;BME280;22064;42.672;23.282;2023-05-19T08:45:44;94955.78;;;20.15;89.32
35989;BME280;22064;42.672;23.282;2023-05-19T08:48:13;94950.28;;;20.12;90.73
35989;BME280;22064;42.672;23.282;2023-05-19T08:53:41;94961.66;;;19.98;94.80
35989;BME280;22064;42.672;23.282;2023-05-19T08:56:30;94955.38;;;19.94;91.09
35989;BME280;22064;42.672;23.282;2023-05-19T08:58:56;94965.75;;;20.04;88.20
35989;BME280;22064;42.672;23.282;2023-05-19T09:01:25;94954.31;;;19.95;88.47
35989;BME280;22064;42.672;23.282;2023-05-19T09:03:53;94947.47;;;19.94;93.40
35989;BME280;22064;42.672;23.282;2023-05-19T09:06:19;94960.34;;;20.37;91.99
35989;BME280;22064;42.672;23.282;2023-05-19T09:08:45;94952.03;;;20.30;86.01
35989;BME280;22064;42.672;23.282;2023-05-19T09:11:12;94930.44;;;20.28;86.36
35989;BME280;22064;42.672;23.282;2023-05-19T09:13:39;94937.16;;;20.48;87.53
35989;BME280;22064;42.672;23.282;2023-05-19T09:16:05;94947.78;;;20.84;83.88
35989;BME280;22064;42.672;23.282;2023-05-19T09:18:32;94945.19;;;20.93;82.36
35989;BME280;22064;42.672;23.282;2023-05-19T09:21:00;94951.47;;;20.97;80.25
35989;BME280;22064;42.672;23.282;2023-05-19T09:23:28;94946.09;;;20.88;75.38
35989;BME280;22064;42.672;23.282;2023-05-19T09:25:55;94936.72;;;21.05;76.15
35989;BME280;22064;42.672;23.282;2023-05-19T09:28:22;94948.91;;;20.92;79.89
35989;BME280;22064;42.672;23.282;2023-05-19T09:30:48;94933.34;;;21.13;76.65
35989;BME280;22064;42.672;23.282;2023-05-19T09:33:22;94923.28;;;21.37;71.37
35989;BME280;22064;42.672;23.282;2023-05-19T09:35:48;94924.56;;;21.49;75.79
35989;BME280;22064;42.672;23.282;2023-05-19T09:38:17;94934.69;;;21.78;73.49
35989;BME280;22064;42.672;23.282;2023-05-19T09:40:44;94935.56;;;22.04;69.46
35989;BME280;22064;42.672;23.282;2023-05-19T09:43:10;94933.81;;;22.31;66.20
35989;BME280;22064;42.672;23.282;2023-05-19T09:45:36;94938.34;;;22.39;63.52
35989;BME280;22064;42.672;23.282;2023-05-19T09:48:03;94927.13;;;22.51;59.55
35989;BME280;22064;42.672;23.282;2023-05-19T09:50:29;94936.53;;;22.92;58.09
35989;BME280;22064;42.672;23.282;2023-05-19T09:52:55;94927.97;;;22.77;58.81
35989;BME280;22064;42.672;23.282;2023-05-19T09:55:24;94927.31;;;22.89;58.23
35989;BME280;22064;42.672;23.282;2023-05-19T09:57:54;94934.22;;;22.90;58.61
35989;BME280;22064;42.672;23.282;2023-05-19T10:00:21;94922.63;;;22.69;56.25
35989;BME280;22064;42.672;23.282;2023-05-19T10:02:48;94920.31;;;23.02;55.61
35989;BME280;22064;42.672;23.282;2023-05-19T10:05:16;94915.59;;;22.73;54.18
35989;BME280;22064;42.672;23.282;2023-05-19T10:07:54;94924.97;;;22.79;54.79
35989;BME280;22064;42.672;23.282;2023-05-19T10:10:21;94919.81;;;22.82;54.50
35989;BME280;22064;42.672;23.282;2023-05-19T10:12:48;94921.41;;;23.18;53.89
35989;BME280;22064;42.672;23.282;2023-05-19T10:15:16;94911.00;;;23.60;52.93
35989;BME280;22064;42.672;23.282;2023-05-19T10:17:43;94915.19;;;23.79;52.72
35989;BME280;22064;42.672;23.282;2023-05-19T10:20:11;94915.22;;;23.70;51.03
35989;BME280;22064;42.672;23.282;2023-05-19T10:22:43;94914.91;;;23.71;51.92
35989;BME280;22064;42.672;23.282;2023-05-19T10:25:11;94911.19;;;23.55;52.37
35989;BME280;22064;42.672;23.282;2023-05-19T10:27:42;94915.38;;;23.65;50.44
35989;BME280;22064;42.672;23.282;2023-05-19T10:30:18;94903.72;;;23.40;50.02
35989;BME280;22064;42.672;23.282;2023-05-19T10:32:46;94910.63;;;22.63;50.80
35989;BME280;22064;42.672;23.282;2023-05-19T10:35:52;94900.78;;;22.80;50.60
35989;BME280;22064;42.672;23.282;2023-05-19T10:38:32;94906.22;;;22.93;50.64
35989;BME280;22064;42.672;23.282;2023-05-19T10:41:10;94903.53;;;23.45;48.79
35989;BME280;22064;42.672;23.282;2023-05-19T10:46:15;94898.41;;;23.40;47.16
35989;BME280;22064;42.672;23.282;2023-05-19T10:48:44;94903.09;;;23.43;48.02
35989;BME280;22064;42.672;23.282;2023-05-19T10:51:11;94894.72;;;23.06;47.70
35989;BME280;22064;42.672;23.282;2023-05-19T10:53:40;94891.81;;;23.46;47.11
35989;BME280;22064;42.672;23.282;2023-05-19T10:56:25;94888.09;;;23.85;46.58
35989;BME280;22064;42.672;23.282;2023-05-19T10:58:53;94881.31;;;24.05;45.94
35989;BME280;22064;42.672;23.282;2023-05-19T11:01:20;94882.22;;;24.09;44.61
35989;BME280;22064;42.672;23.282;2023-05-19T11:03:50;94895.94;;;23.82;42.79
35989;BME280;22064;42.672;23.282;2023-05-19T11:06:30;94886.56;;;23.84;43.16
35989;BME280;22064;42.672;23.282;2023-05-19T11:09:10;94883.59;;;24.15;41.55
35989;BME280;22064;42.672;23.282;2023-05-19T11:11:52;94884.84;;;24.39;41.31
35989;BME280;22064;42.672;23.282;2023-05-19T11:14:23;94887.59;;;24.51;42.99
35989;BME280;22064;42.672;23.282;2023-05-19T11:16:52;94874.84;;;24.36;43.33
35989;BME280;22064;42.672;23.282;2023-05-19T11:19:30;94884.50;;;23.90;43.78
35989;BME280;22064;42.672;23.282;2023-05-19T11:24:33;94890.31;;;23.19;43.73
35989;BME280;22064;42.672;23.282;2023-05-19T11:29:51;94886.53;;;23.37;44.71
35989;BME280;22064;42.672;23.282;2023-05-19T11:32:18;94883.03;;;23.54;43.94
35989;BME280;22064;42.672;23.282;2023-05-19T11:34:44;94869.19;;;23.40;44.09
35989;BME280;22064;42.672;23.282;2023-05-19T11:37:12;94868.44;;;23.13;44.55
35989;BME280;22064;42.672;23.282;2023-05-19T11:39:39;94879.06;;;22.96;43.91
35989;BME280;22064;42.672;23.282;2023-05-19T11:42:07;94873.78;;;22.78;43.95
35989;BME280;22064;42.672;23.282;2023-05-19T11:44:33;94875.66;;;22.87;44.41
35989;BME280;22064;42.672;23.282;2023-05-19T11:46:59;94870.81;;;23.06;45.19
35989;BME280;22064;42.672;23.282;2023-05-19T11:49:28;94870.97;;;22.83;46.20
35989;BME280;22064;42.672;23.282;2023-05-19T11:51:55;94871.88;;;22.70;46.78
35989;BME280;22064;42.672;23.282;2023-05-19T11:54:28;94883.59;;;22.52;48.54
35989;BME280;22064;42.672;23.282;2023-05-19T11:56:55;94893.28;;;21.90;49.83
35989;BME280;22064;42.672;23.282;2023-05-19T11:59:31;94893.75;;;21.08;56.57
35989;BME280;22064;42.672;23.282;2023-05-19T12:02:16;94914.22;;;20.43;97.58
35989;BME280;22064;42.672;23.282;2023-05-19T12:04:43;94909.09;;;19.69;100.00
35989;BME280;22064;42.672;23.282;2023-05-19T12:07:10;94918.03;;;19.54;100.00
35989;BME280;22064;42.672;23.282;2023-05-19T12:09:38;94916.50;;;19.34;100.00
35989;BME280;22064;42.672;23.282;2023-05-19T12:12:04;94916.53;;;18.83;100.00
35989;BME280;22064;42.672;23.282;2023-05-19T12:14:30;94933.06;;;18.51;100.00
35989;BME280;22064;42.672;23.282;2023-05-19T12:16:56;94942.63;;;18.22;100.00
35989;BME280;22064;42.672;23.282;2023-05-19T12:19:23;94935.00;;;17.73;100.00
35989;BME280;22064;42.672;23.282;2023-05-19T12:21:51;94944.34;;;17.60;100.00
35989;BME280;22064;42.672;23.282;2023-05-19T12:24:18;94960.41;;;17.24;100.00
35989;BME280;22064;42.672;23.282;2023-05-19T12:26:44;94968.28;;;16.90;100.00
35989;BME280;22064;42.672;23.282;2023-05-19T12:29:12;94969.69;;;16.72;100.00
35989;BME280;22064;42.672;23.282;2023-05-19T12:31:38;94974.69;;;16.69;100.00
35989;BME280;22064;42.672;23.282;2023-05-19T12:34:04;94961.44;;;16.39;100.00
35989;BME280;22064;42.672;23.282;2023-05-19T12:36:31;94953.00;;;16.48;100.00
35989;BME280;22064;42.672;23.282;2023-05-19T12:38:57;94947.31;;;16.30;100.00
35989;BME280;22064;42.672;23.282;2023-05-19T12:41:24;94938.34;;;16.36;100.00
35989;BME280;22064;42.672;23.282;2023-05-19T12:43:53;94938.75;;;16.59;100.00
35989;BME280;22064;42.672;23.282;2023-05-19T12:46:19;94929.28;;;16.58;100.00
35989;BME280;22064;42.672;23.282;2023-05-19T12:48:47;94915.97;;;16.89;100.00
35989;BME280;22064;42.672;23.282;2023-05-19T12:51:20;94923.69;;;17.09;100.00
35989;BME280;22064;42.672;23.282;2023-05-19T12:53:48;94906.44;;;17.32;100.00
35989;BME280;22064;42.672;23.282;2023-05-19T12:56:14;94900.03;;;17.67;100.00
35989;BME280;22064;42.672;23.282;2023-05-19T12:58:41;94899.63;;;18.03;100.00
35989;BME280;22064;42.672;23.282;2023-05-19T13:01:15;94898.69;;;18.37;100.00
35989;BME280;22064;42.672;23.282;2023-05-19T13:03:42;94900.34;;;18.33;100.00
35989;BME280;22064;42.672;23.282;2023-05-19T13:06:08;94891.13;;;18.30;100.00
35989;BME280;22064;42.672;23.282;2023-05-19T13:08:36;94887.22;;;18.46;100.00
35989;BME280;22064;42.672;23.282;2023-05-19T13:11:02;94894.56;;;18.68;100.00
35989;BME280;22064;42.672;23.282;2023-05-19T13:13:28;94888.38;;;18.97;100.00